createdAt,value
2019-06-09T00:00:11.322Z,14.52
2019-06-09T00:01:26.983Z,14.43
2019-06-09T00:02:08.422Z,14.43
2019-06-09T00:03:09.903Z,14.33
2019-06-09T00:04:09.938Z,14.39
2019-06-09T00:05:10.597Z,14.46
2019-06-09T00:06:09.402Z,14.33
2019-06-09T00:07:09.894Z,14.35
2019-06-09T00:08:10.984Z,14.33
2019-06-09T00:09:09.318Z,14.33
2019-06-09T00:10:09.264Z,14.35
2019-06-09T00:11:09.792Z,14.33
2019-06-09T00:12:09.494Z,14.40
2019-06-09T00:13:09.861Z,14.35
2019-06-09T00:14:09.139Z,14.45
2019-06-09T00:15:09.468Z,14.45
2019-06-09T00:16:09.431Z,14.43
2019-06-09T00:17:10.761Z,14.43
2019-06-09T00:18:09.672Z,14.50
2019-06-09T00:19:10.347Z,14.46
2019-06-09T00:20:10.344Z,14.43
2019-06-09T00:21:09.661Z,14.37
2019-06-09T00:22:09.449Z,14.37
2019-06-09T00:23:09.532Z,14.33
2019-06-09T00:24:09.072Z,14.40
2019-06-09T00:25:09.908Z,14.40
2019-06-09T00:26:09.552Z,14.35
2019-06-09T00:27:09.645Z,14.25
2019-06-09T00:28:09.798Z,14.36
2019-06-09T00:29:09.700Z,14.24
2019-06-09T00:30:17.900Z,14.21
2019-06-09T00:31:08.750Z,14.12
2019-06-09T00:32:10.787Z,14.07
2019-06-09T00:33:09.403Z,14.03
2019-06-09T00:34:10.877Z,14.20
2019-06-09T00:35:09.479Z,14.18
2019-06-09T00:36:09.418Z,14.25
2019-06-09T00:37:08.972Z,14.21
2019-06-09T00:38:09.620Z,14.14
2019-06-09T00:39:10.175Z,14.20
2019-06-09T00:40:08.067Z,14.24
2019-06-09T00:41:09.260Z,14.22
2019-06-09T00:42:09.084Z,14.07
2019-06-09T00:43:09.285Z,14.00
2019-06-09T00:44:08.103Z,13.89
2019-06-09T00:45:11.897Z,13.95
2019-06-09T00:46:10.382Z,13.87
2019-06-09T00:47:09.715Z,13.78
2019-06-09T00:48:08.892Z,13.70
2019-06-09T00:49:09.911Z,13.54
2019-06-09T00:50:09.256Z,13.55
2019-06-09T00:51:09.665Z,13.64
2019-06-09T00:52:11.044Z,13.60
2019-06-09T00:53:09.827Z,13.66
2019-06-09T00:54:10.313Z,13.60
2019-06-09T00:55:11.661Z,13.71
2019-06-09T00:56:11.297Z,13.75
2019-06-09T00:57:16.439Z,13.77
2019-06-09T00:58:10.677Z,13.81
2019-06-09T00:59:11.486Z,13.87
2019-06-09T01:00:11.265Z,13.87
2019-06-09T01:01:10.741Z,13.78
2019-06-09T01:02:12.165Z,13.88
2019-06-09T01:03:08.439Z,13.89
2019-06-09T01:04:09.763Z,13.91
2019-06-09T01:05:09.902Z,13.88
2019-06-09T01:06:08.643Z,14.00
2019-06-09T01:07:09.163Z,13.97
2019-06-09T01:08:08.947Z,13.99
2019-06-09T01:09:08.814Z,14.04
2019-06-09T01:10:11.262Z,13.87
2019-06-09T01:11:08.787Z,13.95
2019-06-09T01:12:09.121Z,13.82
2019-06-09T01:13:09.043Z,13.69
2019-06-09T01:14:09.424Z,13.64
2019-06-09T01:15:09.862Z,13.55
2019-06-09T01:16:10.513Z,13.49
2019-06-09T01:17:09.731Z,13.44
2019-06-09T01:18:09.270Z,13.46
2019-06-09T01:19:08.053Z,13.48
2019-06-09T01:20:09.913Z,13.54
2019-06-09T01:21:07.852Z,13.57
2019-06-09T01:22:07.929Z,13.60
2019-06-09T01:23:08.133Z,13.59
2019-06-09T01:24:07.880Z,13.60
2019-06-09T01:25:08.859Z,13.59
2019-06-09T01:26:07.660Z,13.54
2019-06-09T01:27:07.085Z,13.59
2019-06-09T01:28:07.317Z,13.66
2019-06-09T01:29:07.119Z,13.63
2019-06-09T01:30:13.769Z,13.63
2019-06-09T01:31:08.166Z,13.70
2019-06-09T01:32:18.754Z,13.70
2019-06-09T01:33:07.190Z,13.77
2019-06-09T01:34:08.015Z,13.67
2019-06-09T01:35:08.199Z,13.70
2019-06-09T01:36:08.134Z,13.77
2019-06-09T01:37:08.163Z,13.59
2019-06-09T01:38:08.258Z,13.63
2019-06-09T01:39:07.800Z,13.51
2019-06-09T01:40:08.516Z,13.39
2019-06-09T01:41:07.582Z,13.28
2019-06-09T01:42:08.075Z,13.23
2019-06-09T01:43:08.048Z,13.14
2019-06-09T01:44:07.994Z,13.12
2019-06-09T01:45:07.544Z,13.23
2019-06-09T01:46:07.618Z,13.15
2019-06-09T01:47:07.633Z,13.20
2019-06-09T01:48:08.247Z,13.26
2019-06-09T01:49:07.190Z,13.32
2019-06-09T01:50:07.729Z,13.28
2019-06-09T01:51:08.009Z,13.29
2019-06-09T01:52:07.159Z,13.29
2019-06-09T01:53:07.224Z,13.22
2019-06-09T01:54:07.959Z,13.32
2019-06-09T01:55:08.096Z,13.36
2019-06-09T01:56:07.927Z,13.36
2019-06-09T01:57:08.090Z,13.39
2019-06-09T01:58:07.899Z,13.45
2019-06-09T01:59:08.004Z,13.42
2019-06-09T02:00:07.911Z,13.46
2019-06-09T02:01:08.060Z,13.51
2019-06-09T02:02:08.262Z,13.52
2019-06-09T02:03:07.596Z,13.54
2019-06-09T02:04:07.818Z,13.62
2019-06-09T02:05:07.244Z,13.64
2019-06-09T02:06:07.450Z,13.52
2019-06-09T02:07:07.422Z,13.54
2019-06-09T02:08:07.414Z,13.41
2019-06-09T02:09:07.336Z,13.39
2019-06-09T02:10:07.629Z,13.30
2019-06-09T02:11:07.424Z,13.29
2019-06-09T02:12:07.221Z,13.17
2019-06-09T02:13:08.075Z,13.04
2019-06-09T02:14:08.164Z,13.01
2019-06-09T02:15:07.162Z,12.97
2019-06-09T02:16:07.278Z,13.00
2019-06-09T02:17:07.130Z,13.03
2019-06-09T02:18:08.033Z,13.15
2019-06-09T02:19:08.069Z,13.08
2019-06-09T02:20:07.981Z,13.17
2019-06-09T02:21:07.355Z,13.14
2019-06-09T02:22:07.296Z,13.20
2019-06-09T02:23:07.992Z,13.12
2019-06-09T02:24:08.088Z,13.22
2019-06-09T02:25:08.172Z,13.08
2019-06-09T02:26:08.044Z,13.11
2019-06-09T02:27:08.108Z,13.25
2019-06-09T02:28:07.724Z,13.22
2019-06-09T02:29:07.635Z,13.12
2019-06-09T02:30:09.198Z,13.07
2019-06-09T02:31:08.846Z,12.96
2019-06-09T02:32:09.379Z,13.08
2019-06-09T02:33:13.142Z,12.97
2019-06-09T02:34:09.451Z,12.92
2019-06-09T02:35:09.554Z,12.97
2019-06-09T02:36:14.245Z,12.89
2019-06-09T02:37:05.652Z,13.00
2019-06-09T02:38:05.644Z,13.03
2019-06-09T02:39:05.627Z,13.05
2019-06-09T02:40:05.611Z,13.07
2019-06-09T02:41:05.602Z,13.08
2019-06-09T02:42:05.588Z,13.12
2019-06-09T02:43:05.580Z,13.25
2019-06-09T02:44:05.573Z,13.28
2019-06-09T02:45:05.555Z,13.28
2019-06-09T02:46:05.548Z,13.28
2019-06-09T02:47:05.540Z,13.25
2019-06-09T02:48:05.527Z,13.25
2019-06-09T02:49:05.508Z,13.26
2019-06-09T02:50:05.504Z,13.26
2019-06-09T02:51:05.479Z,13.19
2019-06-09T02:52:05.476Z,13.19
2019-06-09T02:53:05.462Z,13.12
2019-06-09T02:54:05.448Z,13.14
2019-06-09T02:55:05.435Z,13.14
2019-06-09T02:56:05.420Z,13.00
2019-06-09T02:57:05.409Z,12.86
2019-06-09T02:58:05.392Z,12.89
2019-06-09T02:59:05.391Z,12.87
2019-06-09T03:00:05.374Z,12.86
2019-06-09T03:01:05.362Z,12.85
2019-06-09T03:02:05.356Z,12.86
2019-06-09T03:03:25.251Z,12.90
2019-06-09T03:04:10.773Z,12.95
2019-06-09T03:05:05.311Z,12.90
2019-06-09T03:06:05.300Z,12.89
2019-06-09T03:07:05.299Z,12.96
2019-06-09T03:08:05.276Z,13.05
2019-06-09T03:09:05.262Z,13.10
2019-06-09T03:10:05.251Z,13.01
2019-06-09T03:11:05.237Z,13.10
2019-06-09T03:12:05.225Z,13.10
2019-06-09T03:13:05.215Z,13.23
2019-06-09T03:14:05.217Z,13.26
2019-06-09T03:15:05.196Z,13.29
2019-06-09T03:16:05.179Z,13.28
2019-06-09T03:17:05.163Z,13.28
2019-06-09T03:18:05.164Z,13.38
2019-06-09T03:19:05.150Z,13.44
2019-06-09T03:20:05.138Z,13.48
2019-06-09T03:21:05.119Z,13.49
2019-06-09T03:22:05.107Z,13.52
2019-06-09T03:23:05.099Z,13.49
2019-06-09T03:24:05.081Z,13.44
2019-06-09T03:25:05.070Z,13.44
2019-06-09T03:26:05.083Z,13.48
2019-06-09T03:27:05.062Z,13.48
2019-06-09T03:28:05.035Z,13.54
2019-06-09T03:29:05.023Z,13.49
2019-06-09T03:30:05.060Z,13.55
2019-06-09T03:31:20.801Z,13.51
2019-06-09T03:32:26.899Z,13.66
2019-06-09T03:33:29.605Z,13.55
2019-06-09T03:35:43.560Z,13.60
2019-06-09T03:36:50.191Z,13.69
2019-06-09T03:37:37.826Z,13.62
2019-06-09T03:38:18.118Z,13.63
2019-06-09T03:39:04.900Z,13.75
2019-06-09T03:40:04.893Z,13.69
2019-06-09T03:41:04.875Z,13.79
2019-06-09T03:42:08.687Z,13.64
2019-06-09T03:43:04.855Z,13.71
2019-06-09T03:44:04.841Z,13.71
2019-06-09T03:45:04.832Z,13.73
2019-06-09T03:46:04.818Z,13.64
2019-06-09T03:47:04.807Z,13.66
2019-06-09T03:48:04.794Z,13.62
2019-06-09T03:49:04.777Z,13.62
2019-06-09T03:50:04.763Z,13.63
2019-06-09T03:51:04.757Z,13.66
2019-06-09T03:52:04.743Z,13.70
2019-06-09T03:53:04.735Z,13.63
2019-06-09T03:54:04.715Z,13.73
2019-06-09T03:55:04.716Z,13.71
2019-06-09T03:56:04.706Z,13.67
2019-06-09T03:57:08.881Z,13.64
2019-06-09T03:58:04.687Z,13.79
2019-06-09T03:59:04.665Z,13.79
2019-06-09T04:00:13.384Z,13.77
2019-06-09T04:01:04.655Z,13.82
2019-06-09T04:02:04.642Z,13.78
2019-06-09T04:03:04.614Z,13.91
2019-06-09T04:04:04.605Z,13.82
2019-06-09T04:05:04.588Z,13.87
2019-06-09T04:06:23.423Z,13.84
2019-06-09T04:07:05.799Z,13.84
2019-06-09T04:08:04.556Z,13.88
2019-06-09T04:09:04.547Z,13.89
2019-06-09T04:10:04.526Z,13.91
2019-06-09T04:11:04.517Z,13.89
2019-06-09T04:12:04.506Z,13.85
2019-06-09T04:13:04.519Z,13.96
2019-06-09T04:14:04.483Z,13.91
2019-06-09T04:15:04.469Z,13.91
2019-06-09T04:16:08.309Z,13.96
2019-06-09T04:17:06.880Z,13.89
2019-06-09T04:18:04.433Z,13.95
2019-06-09T04:19:04.431Z,13.88
2019-06-09T04:20:04.417Z,13.89
2019-06-09T04:21:04.420Z,13.89
2019-06-09T04:22:04.395Z,13.96
2019-06-09T04:23:04.389Z,13.87
2019-06-09T04:24:04.376Z,13.95
2019-06-09T04:25:04.352Z,13.97
2019-06-09T04:26:04.344Z,14.07
2019-06-09T04:27:04.329Z,13.99
2019-06-09T04:28:04.314Z,14.04
2019-06-09T04:29:04.301Z,14.03
2019-06-09T04:30:13.105Z,14.03
2019-06-09T04:31:04.277Z,14.02
2019-06-09T04:32:04.272Z,14.06
2019-06-09T04:33:04.255Z,14.03
2019-06-09T04:34:04.251Z,14.00
2019-06-09T04:35:04.233Z,14.09
2019-06-09T04:36:22.170Z,14.10
2019-06-09T04:37:06.803Z,14.03
2019-06-09T04:38:04.197Z,14.09
2019-06-09T04:39:04.187Z,14.03
2019-06-09T04:40:04.173Z,14.12
2019-06-09T04:41:04.159Z,14.06
2019-06-09T04:42:04.151Z,14.15
2019-06-09T04:43:04.141Z,14.22
2019-06-09T04:44:04.129Z,14.22
2019-06-09T04:45:04.125Z,14.25
2019-06-09T04:46:04.104Z,14.29
2019-06-09T04:47:04.106Z,14.28
2019-06-09T04:48:04.076Z,14.39
2019-06-09T04:49:04.069Z,14.36
2019-06-09T04:50:04.058Z,14.39
2019-06-09T04:51:04.043Z,14.36
2019-06-09T04:52:04.038Z,14.36
2019-06-09T04:53:04.014Z,14.35
2019-06-09T04:54:04.005Z,14.36
2019-06-09T04:55:03.998Z,14.33
2019-06-09T04:56:03.985Z,14.37
2019-06-09T04:57:03.973Z,14.24
2019-06-09T04:58:03.958Z,14.24
2019-06-09T04:59:03.954Z,14.03
2019-06-09T05:00:12.502Z,13.88
2019-06-09T05:01:03.922Z,13.75
2019-06-09T05:02:03.914Z,13.73
2019-06-09T05:03:03.902Z,13.66
2019-06-09T05:04:03.902Z,13.63
2019-06-09T05:05:03.881Z,13.62
2019-06-09T05:06:03.872Z,13.60
2019-06-09T05:07:17.632Z,13.75
2019-06-09T05:08:08.549Z,13.78
2019-06-09T05:09:03.833Z,13.71
2019-06-09T05:10:03.821Z,13.87
2019-06-09T05:11:03.806Z,13.89
2019-06-09T05:12:03.800Z,14.02
2019-06-09T05:13:03.837Z,14.03
2019-06-09T05:14:03.771Z,14.04
2019-06-09T05:15:03.764Z,14.15
2019-06-09T05:16:03.748Z,14.24
2019-06-09T05:17:03.740Z,14.28
2019-06-09T05:18:04.206Z,14.27
2019-06-09T05:19:03.709Z,14.25
2019-06-09T05:20:03.706Z,14.25
2019-06-09T05:21:03.696Z,14.37
2019-06-09T05:22:03.677Z,14.40
2019-06-09T05:23:03.669Z,14.45
2019-06-09T05:24:03.653Z,14.45
2019-06-09T05:25:03.639Z,14.46
2019-06-09T05:26:03.630Z,14.51
2019-06-09T05:27:03.623Z,14.58
2019-06-09T05:28:03.608Z,14.69
2019-06-09T05:29:03.590Z,14.65
2019-06-09T05:30:06.041Z,14.65
2019-06-09T05:31:03.575Z,14.69
2019-06-09T05:32:03.563Z,14.73
2019-06-09T05:33:03.549Z,14.78
2019-06-09T05:34:03.542Z,14.75
2019-06-09T05:35:03.527Z,14.80
2019-06-09T05:36:03.512Z,14.91
2019-06-09T05:37:17.174Z,14.95
2019-06-09T05:38:03.491Z,14.96
2019-06-09T05:39:03.489Z,15.01
2019-06-09T05:40:03.469Z,15.09
2019-06-09T05:41:03.464Z,15.07
2019-06-09T05:42:03.440Z,14.98
2019-06-09T05:43:03.432Z,15.19
2019-06-09T05:44:03.422Z,15.20
2019-06-09T05:45:03.409Z,15.19
2019-06-09T05:46:03.398Z,15.23
2019-06-09T05:47:03.389Z,15.27
2019-06-09T05:48:03.376Z,15.31
2019-06-09T05:49:03.365Z,15.27
2019-06-09T05:50:03.355Z,15.32
2019-06-09T05:51:03.343Z,15.34
2019-06-09T05:52:03.333Z,15.41
2019-06-09T05:53:03.320Z,15.41
2019-06-09T05:54:03.311Z,15.44
2019-06-09T05:55:03.298Z,15.50
2019-06-09T05:56:03.286Z,15.53
2019-06-09T05:57:03.282Z,15.51
2019-06-09T05:58:03.272Z,15.53
2019-06-09T05:59:03.256Z,15.59
2019-06-09T06:00:03.246Z,15.68
2019-06-09T06:01:03.226Z,15.76
2019-06-09T06:02:03.221Z,15.82
2019-06-09T06:03:03.205Z,16.00
2019-06-09T06:04:03.195Z,16.11
2019-06-09T06:05:03.848Z,16.23
2019-06-09T06:06:03.173Z,16.23
2019-06-09T06:07:16.727Z,16.33
2019-06-09T06:08:03.152Z,16.49
2019-06-09T06:09:03.142Z,16.66
2019-06-09T06:10:03.130Z,16.71
2019-06-09T06:11:03.116Z,16.70
2019-06-09T06:12:03.112Z,16.82
2019-06-09T06:13:03.101Z,16.85
2019-06-09T06:14:03.089Z,16.89
2019-06-09T06:15:03.077Z,16.94
2019-06-09T06:16:03.069Z,17.00
2019-06-09T06:17:03.051Z,17.08
2019-06-09T06:18:03.039Z,17.18
2019-06-09T06:19:03.032Z,17.28
2019-06-09T06:20:03.020Z,17.21
2019-06-09T06:21:03.012Z,17.25
2019-06-09T06:22:03.007Z,17.31
2019-06-09T06:23:02.988Z,17.34
2019-06-09T06:24:02.985Z,17.43
2019-06-09T06:25:02.971Z,17.43
2019-06-09T06:26:04.457Z,17.41
2019-06-09T06:27:02.947Z,17.51
2019-06-09T06:28:02.945Z,17.46
2019-06-09T06:29:02.931Z,17.58
2019-06-09T06:30:02.917Z,17.63
2019-06-09T06:31:02.907Z,17.75
2019-06-09T06:32:02.900Z,17.72
2019-06-09T06:33:02.997Z,17.77
2019-06-09T06:34:02.873Z,17.87
2019-06-09T06:35:02.867Z,17.86
2019-06-09T06:36:02.856Z,17.86
2019-06-09T06:37:02.846Z,17.97
2019-06-09T06:38:02.842Z,18.11
2019-06-09T06:39:03.998Z,18.12
2019-06-09T06:40:02.814Z,18.25
2019-06-09T06:41:02.808Z,18.36
2019-06-09T06:42:02.796Z,18.44
2019-06-09T06:43:02.783Z,18.62
2019-06-09T06:44:02.778Z,18.63
2019-06-09T06:45:02.765Z,18.70
2019-06-09T06:46:02.753Z,18.70
2019-06-09T06:47:11.759Z,18.72
2019-06-09T06:48:02.734Z,18.73
2019-06-09T06:49:02.724Z,18.73
2019-06-09T06:50:02.722Z,18.75
2019-06-09T06:51:02.707Z,18.81
2019-06-09T06:52:02.694Z,18.84
2019-06-09T06:53:02.687Z,18.99
2019-06-09T06:54:02.675Z,18.82
2019-06-09T06:55:02.676Z,18.95
2019-06-09T06:56:02.657Z,18.90
2019-06-09T06:57:02.663Z,18.90
2019-06-09T06:58:02.642Z,18.84
2019-06-09T06:59:02.632Z,18.87
2019-06-09T07:00:04.589Z,18.82
2019-06-09T07:01:02.612Z,18.81
2019-06-09T07:02:02.601Z,18.82
2019-06-09T07:03:02.603Z,18.78
2019-06-09T07:04:02.580Z,18.73
2019-06-09T07:05:02.571Z,18.88
2019-06-09T07:06:02.565Z,18.82
2019-06-09T07:07:17.467Z,18.85
2019-06-09T07:08:08.362Z,18.91
2019-06-09T07:09:02.547Z,18.75
2019-06-09T07:10:02.532Z,18.72
2019-06-09T07:11:02.517Z,18.67
2019-06-09T07:12:02.511Z,18.69
2019-06-09T07:13:02.499Z,18.76
2019-06-09T07:14:02.489Z,18.75
2019-06-09T07:15:02.478Z,18.70
2019-06-09T07:16:02.494Z,18.78
2019-06-09T07:17:02.458Z,18.70
2019-06-09T07:18:02.446Z,18.70
2019-06-09T07:19:02.434Z,18.69
2019-06-09T07:20:02.432Z,18.69
2019-06-09T07:21:02.420Z,18.69
2019-06-09T07:22:02.410Z,18.75
2019-06-09T07:23:02.407Z,18.76
2019-06-09T07:24:02.395Z,18.75
2019-06-09T07:25:02.382Z,18.62
2019-06-09T07:26:02.375Z,18.78
2019-06-09T07:27:02.371Z,18.67
2019-06-09T07:28:02.355Z,18.72
2019-06-09T07:29:02.343Z,18.66
2019-06-09T07:30:09.305Z,18.67
2019-06-09T07:31:02.326Z,18.75
2019-06-09T07:32:02.895Z,18.70
2019-06-09T07:33:02.305Z,18.65
2019-06-09T07:34:02.294Z,18.72
2019-06-09T07:35:02.291Z,18.60
2019-06-09T07:36:02.296Z,18.58
2019-06-09T07:37:02.280Z,18.55
2019-06-09T07:38:18.945Z,18.45
2019-06-09T07:39:02.251Z,18.45
2019-06-09T07:40:02.241Z,18.39
2019-06-09T07:41:02.288Z,18.29
2019-06-09T07:42:02.221Z,18.29
2019-06-09T07:43:02.213Z,18.30
2019-06-09T07:44:02.199Z,18.20
2019-06-09T07:45:02.195Z,18.27
2019-06-09T07:46:02.987Z,18.29
2019-06-09T07:47:02.174Z,18.26
2019-06-09T07:48:02.168Z,18.29
2019-06-09T07:49:02.151Z,18.33
2019-06-09T07:50:02.146Z,18.27
2019-06-09T07:51:02.134Z,18.29
2019-06-09T07:52:02.130Z,18.26
2019-06-09T07:53:02.862Z,18.27
2019-06-09T07:54:02.177Z,18.30
2019-06-09T07:55:02.102Z,18.23
2019-06-09T07:56:02.452Z,18.18
2019-06-09T07:57:02.078Z,18.23
2019-06-09T07:58:02.077Z,18.11
2019-06-09T07:59:02.062Z,18.20
2019-06-09T08:00:02.049Z,18.11
2019-06-09T08:01:02.044Z,18.17
2019-06-09T08:02:03.281Z,18.11
2019-06-09T08:03:02.219Z,18.11
2019-06-09T08:04:02.016Z,18.12
2019-06-09T08:05:02.009Z,18.07
2019-06-09T08:06:02.005Z,18.10
2019-06-09T08:07:01.983Z,18.11
2019-06-09T08:08:01.975Z,18.11
2019-06-09T08:09:02.177Z,18.10
2019-06-09T08:10:01.964Z,18.20
2019-06-09T08:11:01.949Z,18.20
2019-06-09T08:12:01.936Z,18.17
2019-06-09T08:13:01.925Z,18.20
2019-06-09T08:14:01.915Z,18.20
2019-06-09T08:15:01.918Z,18.20
2019-06-09T08:16:01.928Z,18.23
2019-06-09T08:17:03.059Z,18.25
2019-06-09T08:18:01.873Z,18.26
2019-06-09T08:19:01.871Z,18.35
2019-06-09T08:20:01.861Z,18.30
2019-06-09T08:21:01.853Z,18.35
2019-06-09T08:22:01.913Z,18.32
2019-06-09T08:23:01.831Z,18.35
2019-06-09T08:24:01.923Z,18.32
2019-06-09T08:25:01.895Z,18.41
2019-06-09T08:26:01.818Z,18.36
2019-06-09T08:27:02.292Z,18.44
2019-06-09T08:28:01.809Z,18.44
2019-06-09T08:29:02.191Z,18.51
2019-06-09T08:30:09.099Z,18.58
2019-06-09T08:31:03.257Z,18.48
2019-06-09T08:32:01.742Z,18.47
2019-06-09T08:33:01.906Z,18.54
2019-06-09T08:34:01.728Z,18.57
2019-06-09T08:35:05.888Z,18.54
2019-06-09T08:36:01.999Z,18.62
2019-06-09T08:37:01.698Z,18.69
2019-06-09T08:38:01.686Z,18.69
2019-06-09T08:39:10.319Z,18.73
2019-06-09T08:40:01.671Z,18.81
2019-06-09T08:41:01.846Z,18.75
2019-06-09T08:42:01.975Z,18.70
2019-06-09T08:43:01.645Z,18.90
2019-06-09T08:44:01.876Z,18.84
2019-06-09T08:45:01.954Z,18.94
2019-06-09T08:46:02.279Z,18.85
2019-06-09T08:47:02.003Z,18.88
2019-06-09T08:48:01.664Z,18.88
2019-06-09T08:49:01.822Z,18.82
2019-06-09T08:50:01.578Z,18.87
2019-06-09T08:51:01.902Z,18.82
2019-06-09T08:52:01.831Z,18.85
2019-06-09T08:53:03.444Z,18.90
2019-06-09T08:54:01.694Z,18.90
2019-06-09T08:55:01.631Z,18.91
2019-06-09T08:56:02.028Z,18.92
2019-06-09T08:57:01.504Z,18.95
2019-06-09T08:58:02.078Z,18.82
2019-06-09T08:59:01.820Z,18.88
2019-06-09T09:00:01.487Z,18.92
2019-06-09T09:01:02.291Z,19.00
2019-06-09T09:02:01.459Z,18.98
2019-06-09T09:03:01.453Z,18.98
2019-06-09T09:04:03.790Z,18.98
2019-06-09T09:05:01.438Z,18.95
2019-06-09T09:06:02.011Z,19.06
2019-06-09T09:07:01.420Z,19.10
2019-06-09T09:08:01.814Z,19.10
2019-06-09T09:09:16.859Z,19.11
2019-06-09T09:10:01.387Z,19.21
2019-06-09T09:11:01.837Z,19.14
2019-06-09T09:12:01.677Z,19.22
2019-06-09T09:13:01.583Z,19.25
2019-06-09T09:14:02.706Z,19.26
2019-06-09T09:15:03.121Z,19.28
2019-06-09T09:16:01.685Z,19.39
2019-06-09T09:17:01.595Z,19.39
2019-06-09T09:18:01.310Z,19.39
2019-06-09T09:19:01.900Z,19.39
2019-06-09T09:20:04.648Z,19.44
2019-06-09T09:21:01.712Z,19.39
2019-06-09T09:22:01.520Z,19.48
2019-06-09T09:23:01.762Z,19.56
2019-06-09T09:24:41.364Z,19.63
2019-06-09T09:25:14.467Z,19.61
2019-06-09T09:26:01.477Z,19.61
2019-06-09T09:27:06.760Z,19.62
2019-06-09T09:28:01.717Z,19.54
2019-06-09T09:29:01.448Z,19.54
2019-06-09T09:30:02.522Z,19.66
2019-06-09T09:31:01.559Z,19.73
2019-06-09T09:32:01.889Z,19.84
2019-06-09T09:33:01.175Z,19.91
2019-06-09T09:34:02.136Z,20.06
2019-06-09T09:35:01.160Z,20.17
2019-06-09T09:36:01.187Z,20.28
2019-06-09T09:37:01.784Z,20.36
2019-06-09T09:38:01.800Z,20.48
2019-06-09T09:39:01.203Z,20.55
2019-06-09T09:40:01.292Z,20.72
2019-06-09T09:41:01.492Z,20.70
2019-06-09T09:42:01.701Z,20.70
2019-06-09T09:43:02.040Z,20.70
2019-06-09T09:44:01.472Z,20.72
2019-06-09T09:45:01.879Z,20.82
2019-06-09T09:46:02.303Z,20.88
2019-06-09T09:47:02.226Z,20.99
2019-06-09T09:48:01.049Z,21.01
2019-06-09T09:49:01.043Z,21.07
2019-06-09T09:50:01.889Z,21.14
2019-06-09T09:51:01.984Z,21.01
2019-06-09T09:52:01.976Z,21.01
2019-06-09T09:53:01.582Z,20.92
2019-06-09T09:54:00.999Z,20.88
2019-06-09T09:55:01.418Z,20.95
2019-06-09T09:56:04.830Z,20.87
2019-06-09T09:57:01.738Z,20.91
2019-06-09T09:58:01.506Z,20.89
2019-06-09T09:59:01.548Z,20.89
2019-06-09T10:00:02.644Z,20.89
2019-06-09T10:01:00.945Z,20.97
2019-06-09T10:02:00.927Z,21.04
2019-06-09T10:03:02.924Z,21.14
2019-06-09T10:04:01.692Z,21.19
2019-06-09T10:05:01.072Z,21.25
2019-06-09T10:06:00.891Z,21.40
2019-06-09T10:07:00.888Z,21.50
2019-06-09T10:08:01.610Z,21.54
2019-06-09T10:09:02.367Z,21.65
2019-06-09T10:10:04.199Z,21.64
2019-06-09T10:11:00.852Z,21.67
2019-06-09T10:12:02.328Z,21.80
2019-06-09T10:13:00.842Z,21.77
2019-06-09T10:14:01.829Z,21.71
2019-06-09T10:15:00.816Z,21.88
2019-06-09T10:16:00.812Z,21.83
2019-06-09T10:17:02.178Z,21.84
2019-06-09T10:18:02.600Z,22.06
2019-06-09T10:19:01.807Z,22.12
2019-06-09T10:20:02.617Z,22.18
2019-06-09T10:21:02.833Z,22.14
2019-06-09T10:22:02.685Z,22.18
2019-06-09T10:23:03.184Z,22.22
2019-06-09T10:24:01.466Z,22.12
2019-06-09T10:25:13.926Z,22.10
2019-06-09T10:26:02.431Z,22.09
2019-06-09T10:27:02.478Z,22.15
2019-06-09T10:28:01.880Z,22.15
2019-06-09T10:29:03.233Z,22.03
2019-06-09T10:30:02.565Z,22.10
2019-06-09T10:31:03.897Z,22.17
2019-06-09T10:32:02.152Z,22.15
2019-06-09T10:33:08.478Z,22.09
2019-06-09T10:34:01.582Z,22.12
2019-06-09T10:35:03.766Z,22.07
2019-06-09T10:36:02.474Z,22.09
2019-06-09T10:37:03.592Z,21.99
2019-06-09T10:38:03.308Z,22.00
2019-06-09T10:39:03.503Z,22.09
2019-06-09T10:40:15.839Z,22.12
2019-06-09T10:41:04.505Z,22.17
2019-06-09T10:42:02.095Z,22.07
2019-06-09T10:43:04.142Z,22.21
2019-06-09T10:44:02.254Z,22.09
2019-06-09T10:45:04.468Z,22.15
2019-06-09T10:46:03.913Z,22.09
2019-06-09T10:47:08.538Z,22.18
2019-06-09T10:48:02.202Z,22.06
2019-06-09T10:49:04.050Z,21.88
2019-06-09T10:50:02.641Z,21.83
2019-06-09T10:51:04.617Z,21.83
2019-06-09T10:52:02.587Z,21.94
2019-06-09T10:53:06.032Z,21.80
2019-06-09T10:54:01.705Z,21.88
2019-06-09T10:55:02.780Z,21.79
2019-06-09T10:56:05.484Z,21.75
2019-06-09T10:57:04.269Z,21.72
2019-06-09T10:58:01.415Z,21.68
2019-06-09T10:59:03.176Z,21.74
2019-06-09T11:00:20.927Z,21.61
2019-06-09T11:01:01.668Z,21.54
2019-06-09T11:02:03.193Z,21.56
2019-06-09T11:03:01.467Z,21.54
2019-06-09T11:04:04.067Z,21.43
2019-06-09T11:05:03.143Z,21.50
2019-06-09T11:06:03.053Z,21.42
2019-06-09T11:07:04.034Z,21.43
2019-06-09T11:08:04.401Z,21.43
2019-06-09T11:09:06.672Z,21.43
2019-06-09T11:10:16.657Z,21.42
2019-06-09T11:11:00.395Z,21.44
2019-06-09T11:12:03.573Z,21.40
2019-06-09T11:13:02.829Z,21.38
2019-06-09T11:14:03.153Z,21.44
2019-06-09T11:15:02.238Z,21.34
2019-06-09T11:16:03.989Z,21.47
2019-06-09T11:17:04.784Z,21.44
2019-06-09T11:18:02.623Z,21.53
2019-06-09T11:19:02.922Z,21.54
2019-06-09T11:20:03.147Z,21.69
2019-06-09T11:21:02.838Z,21.61
2019-06-09T11:22:03.295Z,21.67
2019-06-09T11:23:05.815Z,21.77
2019-06-09T11:24:03.462Z,21.86
2019-06-09T11:25:08.084Z,21.88
2019-06-09T11:26:01.531Z,21.90
2019-06-09T11:27:04.922Z,21.96
2019-06-09T11:28:04.459Z,22.05
2019-06-09T11:29:01.461Z,21.99
2019-06-09T11:30:03.644Z,22.17
2019-06-09T11:31:00.609Z,22.21
2019-06-09T11:32:02.986Z,22.33
2019-06-09T11:33:00.647Z,22.36
2019-06-09T11:34:03.469Z,22.52
2019-06-09T11:35:01.748Z,22.58
2019-06-09T11:36:03.463Z,22.65
2019-06-09T11:37:04.946Z,22.61
2019-06-09T11:38:03.551Z,22.57
2019-06-09T11:39:01.803Z,22.60
2019-06-09T11:40:02.597Z,22.72
2019-06-09T11:41:03.374Z,22.70
2019-06-09T11:42:03.271Z,22.72
2019-06-09T11:43:02.962Z,22.76
2019-06-09T11:44:03.664Z,22.82
2019-06-09T11:45:03.257Z,22.79
2019-06-09T11:46:03.542Z,22.80
2019-06-09T11:47:04.012Z,22.83
2019-06-09T11:48:02.099Z,22.86
2019-06-09T11:49:04.441Z,22.86
2019-06-09T11:50:02.816Z,22.92
2019-06-09T11:51:02.706Z,22.75
2019-06-09T11:52:05.426Z,22.73
2019-06-09T11:53:02.255Z,22.76
2019-06-09T11:54:03.953Z,22.72
2019-06-09T11:55:03.758Z,22.85
2019-06-09T11:56:02.384Z,22.88
2019-06-09T11:57:02.359Z,23.07
2019-06-09T11:58:03.405Z,23.10
2019-06-09T11:59:02.888Z,23.22
2019-06-09T12:00:03.274Z,23.35
2019-06-09T12:01:02.095Z,23.48
2019-06-09T12:02:02.515Z,23.47
2019-06-09T12:03:02.951Z,23.51
2019-06-09T12:04:04.196Z,23.55
2019-06-09T12:05:03.728Z,23.76
2019-06-09T12:06:04.045Z,23.76
2019-06-09T12:07:03.262Z,23.85
2019-06-09T12:08:02.867Z,23.80
2019-06-09T12:09:03.288Z,23.83
2019-06-09T12:10:02.390Z,23.98
2019-06-09T12:11:07.403Z,24.15
2019-06-09T12:12:02.729Z,24.22
2019-06-09T12:13:03.225Z,24.22
2019-06-09T12:14:02.769Z,24.31
2019-06-09T12:15:03.135Z,24.40
2019-06-09T12:16:04.189Z,24.35
2019-06-09T12:17:04.066Z,24.37
2019-06-09T12:18:02.120Z,24.20
2019-06-09T12:19:04.220Z,24.20
2019-06-09T12:20:01.036Z,24.18
2019-06-09T12:21:04.778Z,24.22
2019-06-09T12:22:02.156Z,24.39
2019-06-09T12:23:02.016Z,24.32
2019-06-09T12:24:02.659Z,24.31
2019-06-09T12:25:06.969Z,24.18
2019-06-09T12:26:03.358Z,24.13
2019-06-09T12:27:02.588Z,24.15
2019-06-09T12:28:02.469Z,24.30
2019-06-09T12:29:02.680Z,24.34
2019-06-09T12:30:02.877Z,24.47
2019-06-09T12:31:03.800Z,24.52
2019-06-09T12:32:00.564Z,24.40
2019-06-09T12:33:02.915Z,24.39
2019-06-09T12:34:02.527Z,24.32
2019-06-09T12:35:04.674Z,24.34
2019-06-09T12:36:00.766Z,24.20
2019-06-09T12:37:03.572Z,24.03
2019-06-09T12:38:01.412Z,23.88
2019-06-09T12:39:01.449Z,23.83
2019-06-09T12:40:03.728Z,23.65
2019-06-09T12:41:11.674Z,23.51
2019-06-09T12:42:01.587Z,23.36
2019-06-09T12:43:01.618Z,23.25
2019-06-09T12:44:01.603Z,23.02
2019-06-09T12:45:01.831Z,22.90
2019-06-09T12:46:03.411Z,22.83
2019-06-09T12:47:02.867Z,22.73
2019-06-09T12:48:02.921Z,22.64
2019-06-09T12:49:02.042Z,22.49
2019-06-09T12:50:02.127Z,22.37
2019-06-09T12:51:02.237Z,22.37
2019-06-09T12:52:02.084Z,22.33
2019-06-09T12:53:00.464Z,22.17